San Elizario, Texas
Current Conditions -  °F | °C
As of 1:40 PM on Thursday 18 Dec 2014 (Local Time) from MMCS Reporting Station
Overcast Overcast  
Wind Chill: 57°   Ceiling: 20000
Heat Index: 57°   Visibility: 10mi
Dew Point: 41°   Wind: 9mph
Humidity: 55%   Direction: 220°SW
Pressure: 30.03"   Gusts: NA
Location:  31.59°N, 106.27°W
Report Text: MMCS 182040Z 22008KT 10SM SCT080 OVC200 14/05 A3003 RMK SLP135 57030 920 8/027 ISOL CU HALO
Loading
Personal Weather Stations






























Interactive Weather Map New forecast layout! Learn more

10-Day Weather Forecast

Advertisements
Track Severe Weather on mobile